createdAt,value
2022-09-23T00:00:30.823Z,5.30
2022-09-23T00:03:01.571Z,4.90
2022-09-23T00:05:33.297Z,5.00
2022-09-23T00:08:03.891Z,5.40
2022-09-23T00:10:37.095Z,4.80
2022-09-23T00:13:07.909Z,5.00
2022-09-23T00:15:42.053Z,4.60
2022-09-23T00:18:12.395Z,4.70
2022-09-23T00:20:42.826Z,4.90
2022-09-23T00:23:13.264Z,4.80
2022-09-23T00:25:43.606Z,5.10
2022-09-23T00:28:13.895Z,5.20
2022-09-23T00:30:44.756Z,5.10
2022-09-23T00:33:15.225Z,5.20
2022-09-23T00:35:45.705Z,4.90
2022-09-23T00:38:16.023Z,4.90
2022-09-23T00:40:47.303Z,4.80
2022-09-23T00:43:17.827Z,4.80
2022-09-23T00:45:50.549Z,5.20
2022-09-23T00:48:23.160Z,5.20
2022-09-23T00:50:55.875Z,4.90
2022-09-23T00:53:27.806Z,4.80
2022-09-23T00:56:03.241Z,5.10
2022-09-23T00:58:37.191Z,4.60
2022-09-23T01:01:07.864Z,4.50
2022-09-23T01:03:38.526Z,4.80
2022-09-23T01:06:09.971Z,5.20
2022-09-23T01:08:40.738Z,4.70
2022-09-23T01:11:25.917Z,4.60
2022-09-23T01:14:07.691Z,5.00
2022-09-23T01:16:44.860Z,4.50
2022-09-23T01:19:35.850Z,5.30
2022-09-23T01:22:15.368Z,4.40
2022-09-23T01:24:54.167Z,4.70
2022-09-23T01:27:47.275Z,4.80
2022-09-23T01:30:39.091Z,4.40
2022-09-23T01:33:16.471Z,4.70
2022-09-23T01:35:58.460Z,5.00
2022-09-23T01:38:38.693Z,4.80
2022-09-23T01:41:28.801Z,4.50
2022-09-23T01:44:05.104Z,5.10
2022-09-23T01:46:43.316Z,5.40
2022-09-23T01:49:18.088Z,4.60
2022-09-23T01:51:53.326Z,4.80
2022-09-23T01:54:29.811Z,5.20
2022-09-23T01:57:04.279Z,5.40
2022-09-23T01:59:38.768Z,5.20
2022-09-23T02:02:15.412Z,4.70
2022-09-23T02:04:51.484Z,4.70
2022-09-23T02:07:26.622Z,4.80
2022-09-23T02:10:04.056Z,5.00
2022-09-23T02:12:38.821Z,4.90
2022-09-23T02:15:12.652Z,4.60
2022-09-23T02:17:50.785Z,5.30
2022-09-23T02:20:25.232Z,5.00
2022-09-23T02:23:03.362Z,4.70
2022-09-23T02:25:40.355Z,4.70
2022-09-23T02:28:17.800Z,4.70
2022-09-23T02:30:56.274Z,5.00
2022-09-23T02:33:35.962Z,4.60
2022-09-23T02:36:12.850Z,4.80
2022-09-23T02:38:49.892Z,4.90
2022-09-23T02:41:27.415Z,4.60
2022-09-23T02:44:03.810Z,4.50
2022-09-23T02:46:34.706Z,4.90
2022-09-23T02:49:11.115Z,4.90
2022-09-23T02:51:42.028Z,4.50
2022-09-23T02:54:17.690Z,4.90
2022-09-23T02:56:49.497Z,5.30
2022-09-23T02:59:22.076Z,5.50
2022-09-23T03:02:14.021Z,5.40
2022-09-23T03:04:57.212Z,5.10
2022-09-23T03:07:33.951Z,4.70
2022-09-23T03:10:12.462Z,5.30
2022-09-23T03:12:52.936Z,5.40
2022-09-23T03:15:35.521Z,5.30
2022-09-23T03:18:14.406Z,5.40
2022-09-23T03:20:50.818Z,5.10
2022-09-23T03:23:25.083Z,5.10
2022-09-23T03:25:58.717Z,5.40
2022-09-23T03:28:31.049Z,5.00
2022-09-23T03:31:01.792Z,5.10
2022-09-23T03:33:35.040Z,5.60
2022-09-23T03:36:27.887Z,5.90
2022-09-23T03:39:04.254Z,4.80
2022-09-23T03:41:39.569Z,4.80
2022-09-23T03:44:11.059Z,5.10
2022-09-23T03:49:16.268Z,5.50
2022-09-23T03:51:46.623Z,5.10
2022-09-23T03:54:19.662Z,4.90
2022-09-23T03:56:50.102Z,4.60
2022-09-23T03:59:20.513Z,4.70
2022-09-23T04:01:51.051Z,4.90
2022-09-23T04:04:21.625Z,5.10
2022-09-23T04:06:52.023Z,5.20
2022-09-23T04:09:22.756Z,5.80
2022-09-23T04:11:53.872Z,5.40
2022-09-23T04:14:24.982Z,4.70
2022-09-23T04:16:55.564Z,5.10
2022-09-23T04:19:26.012Z,5.40
2022-09-23T04:21:56.526Z,5.00
2022-09-23T04:24:26.950Z,5.10
2022-09-23T04:26:57.937Z,5.10
2022-09-23T04:29:28.795Z,5.70
2022-09-23T04:31:59.214Z,5.30
2022-09-23T04:34:30.012Z,5.00
2022-09-23T04:37:00.346Z,4.80
2022-09-23T04:39:30.883Z,4.60
2022-09-23T04:42:01.277Z,5.60
2022-09-23T04:44:31.551Z,4.80
2022-09-23T04:47:01.896Z,6.10
2022-09-23T04:49:33.643Z,6.30
2022-09-23T04:52:05.781Z,6.30
2022-09-23T04:54:37.019Z,6.40
2022-09-23T04:57:08.102Z,5.80
2022-09-23T04:59:38.411Z,6.00
2022-09-23T05:02:08.890Z,5.50
2022-09-23T05:04:39.398Z,5.70
2022-09-23T05:07:10.619Z,5.90
2022-09-23T05:09:41.490Z,6.30
2022-09-23T05:12:11.953Z,6.00
2022-09-23T05:14:42.339Z,6.70
2022-09-23T05:17:12.752Z,6.80
2022-09-23T05:19:43.193Z,6.50
2022-09-23T05:22:13.618Z,6.00
2022-09-23T05:24:44.055Z,6.20
2022-09-23T05:27:14.485Z,6.50
2022-09-23T05:29:44.812Z,6.50
2022-09-23T05:32:15.622Z,5.90
2022-09-23T05:34:45.997Z,7.10
2022-09-23T05:37:16.797Z,7.60
2022-09-23T05:39:47.259Z,7.20
2022-09-23T05:42:20.962Z,7.30
2022-09-23T05:44:52.150Z,7.20
2022-09-23T05:47:22.654Z,8.90
2022-09-23T05:50:00.042Z,7.70
2022-09-23T05:52:31.510Z,7.10
2022-09-23T05:55:02.622Z,6.50
2022-09-23T05:57:33.104Z,8.80
2022-09-23T06:00:08.791Z,10.90
2022-09-23T06:02:42.490Z,13.60
2022-09-23T06:05:13.674Z,11.60
2022-09-23T06:07:44.107Z,12.40
2022-09-23T06:10:14.619Z,12.10
2022-09-23T06:12:45.235Z,11.70
2022-09-23T06:15:15.777Z,11.00
2022-09-23T06:17:46.733Z,10.90
2022-09-23T06:20:17.132Z,10.80
2022-09-23T06:22:50.581Z,11.00
2022-09-23T06:25:30.787Z,10.20
2022-09-23T06:28:12.478Z,11.00
2022-09-23T06:30:42.883Z,10.30
2022-09-23T06:33:13.222Z,11.40
2022-09-23T06:35:53.479Z,10.80
2022-09-23T06:38:28.509Z,11.20
2022-09-23T06:43:28.901Z,11.00
2022-09-23T06:46:01.190Z,10.20
2022-09-23T06:48:36.067Z,10.60
2022-09-23T06:51:09.918Z,10.40
2022-09-23T06:53:40.901Z,10.10
2022-09-23T06:56:12.493Z,10.60
2022-09-23T06:58:43.138Z,10.70
2022-09-23T07:01:16.517Z,10.80
2022-09-23T07:03:48.683Z,10.80
2022-09-23T07:06:19.353Z,10.20
2022-09-23T07:08:51.186Z,11.40
2022-09-23T07:11:22.560Z,11.20
2022-09-23T07:16:22.330Z,10.60
2022-09-23T07:18:53.634Z,11.90
2022-09-23T07:21:24.191Z,13.30
2022-09-23T07:23:55.188Z,11.90
2022-09-23T07:26:26.585Z,10.60
2022-09-23T07:31:38.565Z,12.50
2022-09-23T07:34:12.510Z,11.90
2022-09-23T07:36:43.013Z,11.50
2022-09-23T07:39:14.352Z,11.50
2022-09-23T07:44:16.230Z,12.90
2022-09-23T07:46:46.882Z,13.30
2022-09-23T07:49:17.607Z,13.40
2022-09-23T07:51:48.851Z,13.40
2022-09-23T07:54:20.253Z,14.00
2022-09-23T07:59:20.622Z,13.90
2022-09-23T08:07:13.043Z,14.50
2022-09-23T08:09:45.756Z,12.40
2022-09-23T08:12:18.416Z,15.10
2022-09-23T08:14:48.871Z,14.20
2022-09-23T08:17:19.676Z,15.60
2022-09-23T08:19:50.236Z,15.50
2022-09-23T08:22:21.002Z,15.10
2022-09-23T08:24:52.590Z,15.50
2022-09-23T08:27:24.969Z,14.50
2022-09-23T08:29:55.444Z,14.10
2022-09-23T08:32:26.076Z,15.50
2022-09-23T08:34:56.871Z,16.00
2022-09-23T08:37:27.337Z,16.20
2022-09-23T08:39:57.906Z,15.20
2022-09-23T08:42:33.384Z,14.10
2022-09-23T08:45:08.266Z,15.10
2022-09-23T08:47:47.117Z,15.40
2022-09-23T08:50:21.320Z,15.80
2022-09-23T08:52:55.191Z,15.70
2022-09-23T08:55:33.938Z,17.20
2022-09-23T08:58:26.376Z,16.50
2022-09-23T09:01:09.961Z,16.40
2022-09-23T09:03:46.442Z,16.60
2022-09-23T09:06:22.415Z,15.60
2022-09-23T09:08:58.550Z,17.40
2022-09-23T09:11:35.223Z,15.90
2022-09-23T09:14:18.181Z,18.50
2022-09-23T09:17:00.106Z,15.50
2022-09-23T09:19:47.266Z,15.00
2022-09-23T09:22:25.767Z,16.60
2022-09-23T09:25:06.123Z,16.20
2022-09-23T09:27:44.350Z,16.30
2022-09-23T09:30:17.385Z,16.30
2022-09-23T09:32:53.245Z,14.80
2022-09-23T09:35:36.747Z,16.20
2022-09-23T09:38:07.447Z,15.70
2022-09-23T09:40:43.024Z,16.30
2022-09-23T09:43:22.792Z,16.10
2022-09-23T09:46:05.011Z,15.10
2022-09-23T09:48:41.692Z,15.80
2022-09-23T09:51:24.340Z,13.00
2022-09-23T09:53:56.870Z,13.50
2022-09-23T09:56:35.130Z,15.70
2022-09-23T09:59:14.120Z,14.10
2022-09-23T10:01:44.663Z,14.00
2022-09-23T10:04:30.395Z,15.70
2022-09-23T10:07:12.665Z,13.30
2022-09-23T10:10:01.872Z,12.80
2022-09-23T10:12:52.759Z,12.00
2022-09-23T10:15:34.695Z,13.40
2022-09-23T10:18:05.071Z,13.20
2022-09-23T10:20:38.991Z,15.60
2022-09-23T10:23:14.607Z,13.50
2022-09-23T10:25:55.832Z,13.30
2022-09-23T10:28:47.096Z,11.70
2022-09-23T10:31:25.340Z,10.30
2022-09-23T10:34:00.710Z,10.50
2022-09-23T10:36:34.935Z,9.20
2022-09-23T10:39:25.202Z,8.30
2022-09-23T10:42:21.969Z,8.80
2022-09-23T10:45:30.566Z,7.70
2022-09-23T10:48:07.018Z,8.40
2022-09-23T10:50:47.971Z,7.50
2022-09-23T10:53:32.496Z,7.00
2022-09-23T10:56:17.075Z,6.60
2022-09-23T10:59:16.224Z,7.70
2022-09-23T11:01:52.753Z,7.00
2022-09-23T11:05:24.389Z,6.70
2022-09-23T11:08:07.709Z,7.00
2022-09-23T11:10:59.462Z,6.80
2022-09-23T11:13:55.803Z,7.40
2022-09-23T11:16:45.089Z,6.30
2022-09-23T11:19:48.239Z,6.80
2022-09-23T11:22:32.313Z,6.60
2022-09-23T11:25:24.702Z,7.00
2022-09-23T11:28:13.682Z,7.00
2022-09-23T11:31:01.289Z,6.90
2022-09-23T11:33:51.123Z,6.90
2022-09-23T11:36:33.365Z,6.90
2022-09-23T11:39:14.140Z,6.90
2022-09-23T11:41:48.119Z,7.00
2022-09-23T11:44:26.600Z,6.80
2022-09-23T11:47:04.425Z,7.10
2022-09-23T11:49:40.766Z,7.00
2022-09-23T11:52:19.689Z,7.40
2022-09-23T11:54:56.888Z,7.10
2022-09-23T11:57:42.410Z,7.00
2022-09-23T12:00:22.089Z,7.10
2022-09-23T12:03:05.851Z,7.60
2022-09-23T12:05:40.591Z,6.90
2022-09-23T12:08:23.160Z,6.70
2022-09-23T12:11:00.035Z,7.10
2022-09-23T12:13:50.716Z,7.50
2022-09-23T12:16:44.428Z,6.40
2022-09-23T12:19:29.591Z,6.60
2022-09-23T12:22:15.128Z,6.70
2022-09-23T12:24:56.106Z,5.90
2022-09-23T12:27:33.948Z,6.60
2022-09-23T12:30:08.174Z,6.40
2022-09-23T12:32:39.557Z,5.80
2022-09-23T12:35:23.396Z,5.90
2022-09-23T12:37:55.782Z,5.60
2022-09-23T12:40:31.865Z,5.90
2022-09-23T12:43:03.416Z,5.90
2022-09-23T12:45:43.563Z,6.20
2022-09-23T12:48:47.359Z,5.40
2022-09-23T12:51:23.204Z,5.40
2022-09-23T12:54:14.753Z,5.10
2022-09-23T12:57:10.734Z,5.20
2022-09-23T12:59:59.281Z,5.70
2022-09-23T13:02:42.351Z,5.60
2022-09-23T13:05:42.440Z,5.40
2022-09-23T13:08:18.060Z,5.10
2022-09-23T13:10:53.660Z,5.70
2022-09-23T13:13:29.612Z,5.00
2022-09-23T13:16:13.769Z,5.30
2022-09-23T13:19:00.966Z,5.90
2022-09-23T13:22:11.071Z,5.50
2022-09-23T13:25:01.907Z,5.40
2022-09-23T13:27:34.589Z,5.70
2022-09-23T13:30:23.604Z,5.60
2022-09-23T13:33:12.898Z,5.40
2022-09-23T13:35:50.863Z,5.30
2022-09-23T13:38:25.944Z,5.70
2022-09-23T13:41:02.969Z,5.80
2022-09-23T13:43:42.751Z,6.20
2022-09-23T13:46:17.339Z,5.10
2022-09-23T13:48:49.814Z,5.50
2022-09-23T13:51:31.588Z,5.90
2022-09-23T13:54:05.022Z,5.40
2022-09-23T13:56:37.856Z,5.70
2022-09-23T13:59:27.712Z,5.20
2022-09-23T14:02:12.872Z,5.00
2022-09-23T14:04:45.868Z,5.70
2022-09-23T14:07:20.362Z,4.80
2022-09-23T14:09:53.293Z,5.50
2022-09-23T14:12:24.271Z,5.40
2022-09-23T14:14:55.074Z,5.30
2022-09-23T14:17:25.722Z,5.30
2022-09-23T14:19:56.500Z,5.60
2022-09-23T14:22:29.024Z,5.40
2022-09-23T14:25:00.477Z,5.10
2022-09-23T14:27:32.904Z,5.10
2022-09-23T14:30:04.842Z,5.50
2022-09-23T14:32:35.721Z,4.90
2022-09-23T14:35:20.362Z,5.50
2022-09-23T14:38:11.157Z,5.30
2022-09-23T14:40:53.386Z,6.00
2022-09-23T14:43:28.109Z,5.50
2022-09-23T14:45:59.975Z,5.40
2022-09-23T14:48:33.911Z,5.40
2022-09-23T14:51:11.900Z,4.70
2022-09-23T14:53:46.422Z,5.00
2022-09-23T14:56:22.670Z,5.40
2022-09-23T14:58:55.938Z,4.80
2022-09-23T15:01:36.936Z,4.50
2022-09-23T15:04:29.485Z,5.20
2022-09-23T15:07:03.421Z,5.00
2022-09-23T15:09:36.915Z,4.60
2022-09-23T15:12:13.269Z,4.70
2022-09-23T15:14:47.347Z,4.90
2022-09-23T15:17:26.570Z,5.30
2022-09-23T15:19:59.726Z,5.00
2022-09-23T15:22:30.458Z,6.40
2022-09-23T15:25:18.551Z,6.80
2022-09-23T15:28:02.426Z,7.70
2022-09-23T15:30:35.874Z,6.40
2022-09-23T15:33:06.623Z,5.90
2022-09-23T15:35:44.089Z,5.20
2022-09-23T15:38:15.059Z,6.00
2022-09-23T15:40:46.009Z,5.60
2022-09-23T15:43:20.956Z,6.10
2022-09-23T15:45:54.267Z,5.30
2022-09-23T15:48:27.209Z,4.80
2022-09-23T15:50:59.151Z,4.90
2022-09-23T15:53:31.572Z,5.00
2022-09-23T15:56:02.465Z,5.20
2022-09-23T15:58:33.183Z,5.30
2022-09-23T16:01:05.047Z,5.40
2022-09-23T16:03:35.622Z,5.00
2022-09-23T16:06:07.335Z,4.80
2022-09-23T16:08:39.090Z,4.90
2022-09-23T16:11:16.004Z,5.10
2022-09-23T16:13:46.620Z,5.10
2022-09-23T16:16:17.195Z,5.20
2022-09-23T16:18:51.464Z,5.10
2022-09-23T16:21:24.926Z,6.00
2022-09-23T16:23:57.344Z,5.10
2022-09-23T16:26:31.258Z,5.50
2022-09-23T16:29:02.189Z,5.20
2022-09-23T16:31:32.970Z,5.30
2022-09-23T16:34:03.453Z,5.90
2022-09-23T16:36:36.856Z,5.70
2022-09-23T16:39:11.150Z,5.30
2022-09-23T16:41:44.019Z,5.50
2022-09-23T16:44:16.305Z,5.30
2022-09-23T16:46:48.007Z,5.10
2022-09-23T16:49:18.493Z,5.40
2022-09-23T16:51:49.009Z,5.40
2022-09-23T16:54:20.399Z,6.30
2022-09-23T16:56:52.160Z,6.10
2022-09-23T16:59:22.653Z,5.70
2022-09-23T17:02:11.316Z,5.60
2022-09-23T17:04:41.670Z,5.80
2022-09-23T17:07:12.192Z,5.30
2022-09-23T17:09:42.574Z,5.40
2022-09-23T17:12:19.605Z,5.90
2022-09-23T17:14:50.113Z,5.90
2022-09-23T17:17:20.908Z,10.20
2022-09-23T17:19:51.507Z,6.80
2022-09-23T17:22:21.984Z,6.20
2022-09-23T17:24:52.407Z,6.30
2022-09-23T17:27:24.951Z,6.40
2022-09-23T17:29:55.479Z,5.50
2022-09-23T17:32:26.383Z,6.60
2022-09-23T17:34:57.486Z,6.80
2022-09-23T17:37:27.891Z,7.30
2022-09-23T17:39:58.340Z,6.80
2022-09-23T17:42:28.907Z,6.40
2022-09-23T17:44:59.379Z,6.60
2022-09-23T17:47:32.465Z,9.60
2022-09-23T17:50:04.461Z,8.10
2022-09-23T17:52:34.885Z,8.70
2022-09-23T17:55:05.806Z,8.30
2022-09-23T17:57:36.305Z,7.70
2022-09-23T18:00:10.003Z,7.20
2022-09-23T18:02:43.141Z,6.80
2022-09-23T18:05:13.811Z,13.80
2022-09-23T18:07:44.473Z,14.40
2022-09-23T18:10:15.015Z,9.20
2022-09-23T18:12:45.494Z,8.80
2022-09-23T18:15:19.986Z,8.90
2022-09-23T18:17:50.656Z,9.00
2022-09-23T18:20:21.179Z,8.80
2022-09-23T18:22:51.581Z,9.40
2022-09-23T18:25:38.561Z,9.10
2022-09-23T18:28:09.475Z,8.60
2022-09-23T18:30:40.066Z,8.50
2022-09-23T18:33:10.599Z,6.90
2022-09-23T18:35:41.135Z,7.80
2022-09-23T18:38:11.618Z,8.70
2022-09-23T18:40:50.742Z,7.70
2022-09-23T18:43:24.579Z,7.80
2022-09-23T18:46:01.017Z,8.90
2022-09-23T18:48:51.272Z,8.30
2022-09-23T18:51:23.963Z,7.90
2022-09-23T18:53:57.785Z,8.30
2022-09-23T18:56:33.618Z,7.70
2022-09-23T18:59:05.712Z,7.90
2022-09-23T19:01:36.685Z,8.40
2022-09-23T19:04:07.761Z,7.90
2022-09-23T19:06:38.321Z,9.40
2022-09-23T19:09:09.300Z,7.90
2022-09-23T19:11:39.895Z,8.30
2022-09-23T19:14:13.855Z,8.70
2022-09-23T19:16:44.828Z,7.70
2022-09-23T19:19:15.377Z,8.30
2022-09-23T19:21:45.787Z,8.70
2022-09-23T19:24:20.437Z,7.90
2022-09-23T19:26:51.278Z,7.40
2022-09-23T19:29:22.187Z,8.70
2022-09-23T19:31:53.348Z,8.80
2022-09-23T19:34:25.959Z,9.60
2022-09-23T19:36:58.344Z,9.50
2022-09-23T19:39:31.628Z,9.60
2022-09-23T19:42:02.182Z,8.80
2022-09-23T19:44:32.708Z,10.20
2022-09-23T19:47:03.349Z,9.30
2022-09-23T19:49:34.046Z,8.50
2022-09-23T19:52:04.993Z,8.80
2022-09-23T19:54:35.833Z,7.90
2022-09-23T19:57:06.487Z,8.20
2022-09-23T19:59:38.553Z,8.80
2022-09-23T20:02:09.881Z,8.50
2022-09-23T20:07:09.956Z,8.40
2022-09-23T20:09:40.806Z,7.80
2022-09-23T20:12:11.347Z,8.10
2022-09-23T20:14:41.891Z,7.90
2022-09-23T20:17:13.583Z,8.00
2022-09-23T20:19:44.949Z,8.10
2022-09-23T20:25:04.812Z,8.50
2022-09-23T20:27:35.224Z,8.80
2022-09-23T20:30:06.755Z,8.10
2022-09-23T20:32:40.635Z,8.40
2022-09-23T20:35:13.617Z,9.20
2022-09-23T20:37:44.733Z,9.80
2022-09-23T20:40:15.222Z,9.20
2022-09-23T20:42:48.872Z,10.00
2022-09-23T20:45:19.450Z,9.30
2022-09-23T20:47:49.797Z,9.30
2022-09-23T20:50:20.479Z,9.10
2022-09-23T20:52:50.859Z,8.20
2022-09-23T20:55:21.363Z,8.90
2022-09-23T20:57:51.789Z,8.30
2022-09-23T21:00:22.310Z,9.70
2022-09-23T21:02:52.733Z,9.60
2022-09-23T21:05:23.490Z,9.10
2022-09-23T21:07:54.004Z,8.60
2022-09-23T21:10:24.849Z,9.00
2022-09-23T21:12:55.218Z,8.80
2022-09-23T21:15:25.926Z,9.00
2022-09-23T21:17:56.376Z,9.60
2022-09-23T21:20:26.793Z,9.80
2022-09-23T21:22:57.579Z,9.20
2022-09-23T21:25:29.179Z,8.90
2022-09-23T21:28:01.856Z,8.50
2022-09-23T21:30:32.321Z,8.40
2022-09-23T21:33:02.749Z,8.70
2022-09-23T21:35:33.445Z,7.80
2022-09-23T21:38:03.825Z,8.50
2022-09-23T21:40:48.210Z,8.50
2022-09-23T21:43:19.686Z,7.60
2022-09-23T21:48:19.679Z,9.10
2022-09-23T21:50:59.190Z,8.90
2022-09-23T21:53:31.145Z,8.50
2022-09-23T21:56:07.074Z,9.30
2022-09-23T21:58:38.909Z,7.80
2022-09-23T22:01:16.412Z,8.40
2022-09-23T22:03:50.553Z,8.60
2022-09-23T22:06:23.149Z,8.80
2022-09-23T22:08:59.065Z,8.90
2022-09-23T22:11:49.379Z,8.60
2022-09-23T22:14:21.610Z,8.30
2022-09-23T22:16:53.340Z,8.40
2022-09-23T22:19:25.373Z,8.20
2022-09-23T22:21:56.596Z,8.60
2022-09-23T22:24:27.047Z,8.80
2022-09-23T22:26:57.526Z,7.60
2022-09-23T22:29:45.552Z,8.80
2022-09-23T22:32:33.997Z,8.80
2022-09-23T22:35:05.068Z,8.50
2022-09-23T22:37:37.004Z,8.10
2022-09-23T22:40:10.611Z,8.30
2022-09-23T22:42:42.250Z,8.40
2022-09-23T22:45:14.103Z,8.30
2022-09-23T22:47:46.087Z,7.90
2022-09-23T22:50:16.911Z,8.50
2022-09-23T22:52:47.531Z,7.70
2022-09-23T22:55:18.156Z,7.70
2022-09-23T22:57:50.709Z,8.30
2022-09-23T23:00:21.165Z,7.50
2022-09-23T23:02:51.693Z,8.30
2022-09-23T23:05:22.172Z,8.80
2022-09-23T23:07:53.199Z,7.80
2022-09-23T23:10:24.660Z,7.90
2022-09-23T23:15:24.072Z,7.30
2022-09-23T23:17:59.187Z,7.90
2022-09-23T23:20:30.247Z,9.00
2022-09-23T23:23:02.785Z,8.60
2022-09-23T23:25:33.230Z,7.80
2022-09-23T23:28:05.672Z,7.60
2022-09-23T23:30:36.770Z,7.90
2022-09-23T23:33:07.314Z,8.40
2022-09-23T23:35:37.861Z,8.80
2022-09-23T23:38:10.943Z,8.40
2022-09-23T23:40:41.363Z,8.70
2022-09-23T23:43:11.874Z,9.10
2022-09-23T23:45:43.616Z,9.10
2022-09-23T23:48:14.448Z,9.30
2022-09-23T23:50:45.339Z,9.20
2022-09-23T23:53:16.407Z,9.50
2022-09-23T23:55:47.086Z,8.40
2022-09-23T23:58:18.974Z,8.70
